createdAt,value
2023-03-18T00:00:42.900Z,39.32
2023-03-18T00:01:42.900Z,40.28
2023-03-18T00:02:42.883Z,39.80
2023-03-18T00:03:42.905Z,40.44
2023-03-18T00:04:42.906Z,41.41
2023-03-18T00:05:42.840Z,39.32
2023-03-18T00:06:42.861Z,38.67
2023-03-18T00:07:42.878Z,38.67
2023-03-18T00:08:42.838Z,39.64
2023-03-18T00:09:42.831Z,40.77
2023-03-18T00:10:42.797Z,39.80
2023-03-18T00:11:42.832Z,40.77
2023-03-18T00:12:42.783Z,40.93
2023-03-18T00:13:42.794Z,40.28
2023-03-18T00:14:42.811Z,39.80
2023-03-18T00:15:42.823Z,39.96
2023-03-18T00:16:42.746Z,39.96
2023-03-18T00:17:43.865Z,40.77
2023-03-18T00:18:42.747Z,39.80
2023-03-18T00:19:42.753Z,39.48
2023-03-18T00:20:42.718Z,44.79
2023-03-18T00:21:42.716Z,42.22
2023-03-18T00:22:42.712Z,39.48
2023-03-18T00:23:42.712Z,43.18
2023-03-18T00:24:42.726Z,39.96
2023-03-18T00:25:42.683Z,39.16
2023-03-18T00:26:42.679Z,39.80
2023-03-18T00:27:42.733Z,39.80
2023-03-18T00:28:42.673Z,39.64
2023-03-18T00:29:42.691Z,39.80
2023-03-18T00:30:42.670Z,39.64
2023-03-18T00:31:42.683Z,39.80
2023-03-18T00:32:42.680Z,42.54
2023-03-18T00:33:42.629Z,39.64
2023-03-18T00:34:42.645Z,39.16
2023-03-18T00:35:42.638Z,39.96
2023-03-18T00:36:42.608Z,51.40
2023-03-18T00:37:42.626Z,39.32
2023-03-18T00:38:42.639Z,38.83
2023-03-18T00:39:42.615Z,38.99
2023-03-18T00:40:42.589Z,40.12
2023-03-18T00:41:42.571Z,39.96
2023-03-18T00:42:42.563Z,41.73
2023-03-18T00:43:42.557Z,39.48
2023-03-18T00:44:42.586Z,39.96
2023-03-18T00:45:42.534Z,40.28
2023-03-18T00:46:42.607Z,42.70
2023-03-18T00:47:42.529Z,39.16
2023-03-18T00:48:42.573Z,40.93
2023-03-18T00:49:42.534Z,42.38
2023-03-18T00:50:42.505Z,40.44
2023-03-18T00:51:42.514Z,40.61
2023-03-18T00:52:42.485Z,41.41
2023-03-18T00:53:42.477Z,40.44
2023-03-18T00:54:42.498Z,40.77
2023-03-18T00:55:42.461Z,42.38
2023-03-18T00:56:42.478Z,41.41
2023-03-18T00:57:42.434Z,40.93
2023-03-18T00:58:42.429Z,39.80
2023-03-18T00:59:42.486Z,44.47
2023-03-18T01:00:42.454Z,40.93
2023-03-18T01:01:42.481Z,39.96
2023-03-18T01:02:42.404Z,39.80
2023-03-18T01:03:42.419Z,40.61
2023-03-18T01:04:42.452Z,39.48
2023-03-18T01:05:42.402Z,39.48
2023-03-18T01:06:42.395Z,40.12
2023-03-18T01:07:42.371Z,39.80
2023-03-18T01:08:42.414Z,39.64
2023-03-18T01:09:42.379Z,38.83
2023-03-18T01:10:42.346Z,38.83
2023-03-18T01:11:42.333Z,39.80
2023-03-18T01:12:42.332Z,40.12
2023-03-18T01:13:42.338Z,40.12
2023-03-18T01:14:42.337Z,42.22
2023-03-18T01:15:42.319Z,39.80
2023-03-18T01:16:42.313Z,39.80
2023-03-18T01:17:42.300Z,39.48
2023-03-18T01:18:42.304Z,39.64
2023-03-18T01:19:42.364Z,40.61
2023-03-18T01:20:42.262Z,39.64
2023-03-18T01:21:42.243Z,39.80
2023-03-18T01:22:43.245Z,39.16
2023-03-18T01:23:42.234Z,40.28
2023-03-18T01:24:42.260Z,38.99
2023-03-18T01:25:42.221Z,38.51
2023-03-18T01:26:42.230Z,39.16
2023-03-18T01:27:42.213Z,42.86
2023-03-18T01:28:42.210Z,39.48
2023-03-18T01:29:42.243Z,39.16
2023-03-18T01:30:42.273Z,39.32
2023-03-18T01:31:42.202Z,39.48
2023-03-18T01:32:42.214Z,39.16
2023-03-18T01:33:42.174Z,38.83
2023-03-18T01:34:42.212Z,38.83
2023-03-18T01:35:42.177Z,38.35
2023-03-18T01:36:42.144Z,44.63
2023-03-18T01:37:42.132Z,39.96
2023-03-18T01:38:42.126Z,40.93
2023-03-18T01:39:42.141Z,41.73
2023-03-18T01:40:42.112Z,38.03
2023-03-18T01:41:42.109Z,39.48
2023-03-18T01:42:42.098Z,38.19
2023-03-18T01:43:42.090Z,40.44
2023-03-18T01:44:42.124Z,38.35
2023-03-18T01:45:42.138Z,38.83
2023-03-18T01:46:42.061Z,38.83
2023-03-18T01:47:42.050Z,39.32
2023-03-18T01:48:42.046Z,37.87
2023-03-18T01:49:42.046Z,38.51
2023-03-18T01:50:42.069Z,37.54
2023-03-18T01:51:42.041Z,37.71
2023-03-18T01:52:42.030Z,37.87
2023-03-18T01:53:43.024Z,43.51
2023-03-18T01:54:42.006Z,40.28
2023-03-18T01:55:42.068Z,38.67
2023-03-18T01:56:42.016Z,38.99
2023-03-18T01:57:42.032Z,39.96
2023-03-18T01:58:41.987Z,42.06
2023-03-18T01:59:41.979Z,44.47
2023-03-18T02:00:42.116Z,39.32
2023-03-18T02:01:41.976Z,41.89
2023-03-18T02:02:41.949Z,40.77
2023-03-18T02:03:42.019Z,39.48
2023-03-18T02:04:42.005Z,37.71
2023-03-18T02:05:41.969Z,39.80
2023-03-18T02:06:41.938Z,43.34
2023-03-18T02:07:41.929Z,41.57
2023-03-18T02:08:41.919Z,41.41
2023-03-18T02:09:41.904Z,39.32
2023-03-18T02:10:41.935Z,39.48
2023-03-18T02:11:41.886Z,39.32
2023-03-18T02:12:41.870Z,44.79
2023-03-18T02:13:41.871Z,39.32
2023-03-18T02:14:41.865Z,38.51
2023-03-18T02:15:41.880Z,38.83
2023-03-18T02:16:42.912Z,38.67
2023-03-18T02:17:41.847Z,37.22
2023-03-18T02:18:41.887Z,38.83
2023-03-18T02:19:41.832Z,42.86
2023-03-18T02:20:41.846Z,40.77
2023-03-18T02:21:41.862Z,38.03
2023-03-18T02:22:41.810Z,38.19
2023-03-18T02:23:41.839Z,38.19
2023-03-18T02:24:41.801Z,42.06
2023-03-18T02:25:41.849Z,40.28
2023-03-18T02:26:41.784Z,46.89
2023-03-18T02:27:41.771Z,39.32
2023-03-18T02:28:41.776Z,38.19
2023-03-18T02:29:41.767Z,37.54
2023-03-18T02:30:41.844Z,39.80
2023-03-18T02:31:41.778Z,40.93
2023-03-18T02:32:41.788Z,48.82
2023-03-18T02:33:41.714Z,40.44
2023-03-18T02:34:41.714Z,39.80
2023-03-18T02:35:41.742Z,42.06
2023-03-18T02:36:41.685Z,38.51
2023-03-18T02:37:41.689Z,38.19
2023-03-18T02:38:41.683Z,39.64
2023-03-18T02:39:41.677Z,44.63
2023-03-18T02:40:41.710Z,41.41
2023-03-18T02:41:41.686Z,38.35
2023-03-18T02:42:41.729Z,39.32
2023-03-18T02:43:41.692Z,38.19
2023-03-18T02:44:41.658Z,39.16
2023-03-18T02:45:41.674Z,39.48
2023-03-18T02:46:41.642Z,39.32
2023-03-18T02:47:41.609Z,41.73
2023-03-18T02:48:41.592Z,41.41
2023-03-18T02:49:41.593Z,41.09
2023-03-18T02:50:42.483Z,37.71
2023-03-18T02:51:42.576Z,38.35
2023-03-18T02:52:41.574Z,39.96
2023-03-18T02:53:41.601Z,37.54
2023-03-18T02:54:41.573Z,39.32
2023-03-18T02:55:41.589Z,40.93
2023-03-18T02:56:41.577Z,38.99
2023-03-18T02:57:41.537Z,38.99
2023-03-18T02:58:41.576Z,37.87
2023-03-18T02:59:41.528Z,37.71
2023-03-18T03:00:41.538Z,38.03
2023-03-18T03:01:41.543Z,38.35
2023-03-18T03:02:41.634Z,38.35
2023-03-18T03:03:41.630Z,37.87
2023-03-18T03:04:41.488Z,39.48
2023-03-18T03:05:41.498Z,38.83
2023-03-18T03:06:41.498Z,39.16
2023-03-18T03:07:41.481Z,38.19
2023-03-18T03:08:41.469Z,38.67
2023-03-18T03:09:41.441Z,38.83
2023-03-18T03:10:41.466Z,39.16
2023-03-18T03:11:41.427Z,39.48
2023-03-18T03:12:41.439Z,46.73
2023-03-18T03:13:41.416Z,41.89
2023-03-18T03:14:41.431Z,40.93
2023-03-18T03:15:41.433Z,41.25
2023-03-18T03:16:41.397Z,41.09
2023-03-18T03:17:41.383Z,39.80
2023-03-18T03:18:41.403Z,39.96
2023-03-18T03:19:41.362Z,39.96
2023-03-18T03:20:41.388Z,40.93
2023-03-18T03:21:41.345Z,45.28
2023-03-18T03:22:41.343Z,39.96
2023-03-18T03:23:41.355Z,39.80
2023-03-18T03:24:41.318Z,44.47
2023-03-18T03:25:41.348Z,39.64
2023-03-18T03:26:41.316Z,39.80
2023-03-18T03:27:41.295Z,40.28
2023-03-18T03:28:41.296Z,39.80
2023-03-18T03:29:41.285Z,39.80
2023-03-18T03:30:41.268Z,40.12
2023-03-18T03:31:41.308Z,51.08
2023-03-18T03:32:41.278Z,41.09
2023-03-18T03:33:41.251Z,40.93
2023-03-18T03:34:41.241Z,39.32
2023-03-18T03:35:41.298Z,45.28
2023-03-18T03:36:41.252Z,41.09
2023-03-18T03:37:41.236Z,44.31
2023-03-18T03:38:41.213Z,39.80
2023-03-18T03:39:41.201Z,40.12
2023-03-18T03:40:41.224Z,41.09
2023-03-18T03:41:41.207Z,40.12
2023-03-18T03:42:41.175Z,41.57
2023-03-18T03:43:42.089Z,38.51
2023-03-18T03:44:41.154Z,40.44
2023-03-18T03:45:41.157Z,39.32
2023-03-18T03:46:41.176Z,39.16
2023-03-18T03:47:41.148Z,38.51
2023-03-18T03:48:41.123Z,40.12
2023-03-18T03:49:41.121Z,39.96
2023-03-18T03:50:41.117Z,39.16
2023-03-18T03:51:41.160Z,39.64
2023-03-18T03:52:41.089Z,39.64
2023-03-18T03:53:41.113Z,40.44
2023-03-18T03:54:41.093Z,40.93
2023-03-18T03:55:41.072Z,39.16
2023-03-18T03:56:41.211Z,38.35
2023-03-18T03:57:41.067Z,39.32
2023-03-18T03:58:41.053Z,39.64
2023-03-18T03:59:41.067Z,41.09
2023-03-18T04:00:41.036Z,42.22
2023-03-18T04:01:41.052Z,38.83
2023-03-18T04:02:41.075Z,40.44
2023-03-18T04:03:41.615Z,39.32
2023-03-18T04:04:41.066Z,40.77
2023-03-18T04:05:40.995Z,40.28
2023-03-18T04:06:41.013Z,39.96
2023-03-18T04:07:40.979Z,42.54
2023-03-18T04:08:40.975Z,39.80
2023-03-18T04:09:40.966Z,39.80
2023-03-18T04:10:40.961Z,44.79
2023-03-18T04:11:40.993Z,41.25
2023-03-18T04:12:40.952Z,40.44
2023-03-18T04:13:40.948Z,39.80
2023-03-18T04:14:40.930Z,41.09
2023-03-18T04:15:40.922Z,40.12
2023-03-18T04:16:40.975Z,41.09
2023-03-18T04:17:40.914Z,38.99
2023-03-18T04:18:40.915Z,40.77
2023-03-18T04:19:40.892Z,41.73
2023-03-18T04:20:40.899Z,40.93
2023-03-18T04:21:40.932Z,42.06
2023-03-18T04:22:40.878Z,44.47
2023-03-18T04:23:40.867Z,40.44
2023-03-18T04:24:40.851Z,39.80
2023-03-18T04:25:40.852Z,39.32
2023-03-18T04:26:40.888Z,39.96
2023-03-18T04:27:41.839Z,41.89
2023-03-18T04:28:40.832Z,39.64
2023-03-18T04:29:40.818Z,42.54
2023-03-18T04:30:40.809Z,40.77
2023-03-18T04:31:40.844Z,40.44
2023-03-18T04:32:40.811Z,40.44
2023-03-18T04:33:40.786Z,39.80
2023-03-18T04:34:40.771Z,42.22
2023-03-18T04:35:40.840Z,40.28
2023-03-18T04:36:40.794Z,39.16
2023-03-18T04:37:40.752Z,38.99
2023-03-18T04:38:40.818Z,40.44
2023-03-18T04:39:40.791Z,42.22
2023-03-18T04:40:41.384Z,40.93
2023-03-18T04:41:40.724Z,39.96
2023-03-18T04:42:40.748Z,40.44
2023-03-18T04:43:40.742Z,41.89
2023-03-18T04:44:40.697Z,48.02
2023-03-18T04:45:40.722Z,41.41
2023-03-18T04:46:40.724Z,42.06
2023-03-18T04:47:40.712Z,41.73
2023-03-18T04:48:40.701Z,42.70
2023-03-18T04:49:40.681Z,44.47
2023-03-18T04:50:40.662Z,42.22
2023-03-18T04:51:40.645Z,40.12
2023-03-18T04:52:40.766Z,40.61
2023-03-18T04:53:40.641Z,42.22
2023-03-18T04:54:40.622Z,41.25
2023-03-18T04:55:40.615Z,41.09
2023-03-18T04:56:41.609Z,42.70
2023-03-18T04:57:40.653Z,41.89
2023-03-18T04:58:40.637Z,42.54
2023-03-18T04:59:40.626Z,40.12
2023-03-18T05:00:40.642Z,40.44
2023-03-18T05:01:40.586Z,40.28
2023-03-18T05:02:40.593Z,40.44
2023-03-18T05:03:40.582Z,46.08
2023-03-18T05:04:40.578Z,39.64
2023-03-18T05:05:40.556Z,44.31
2023-03-18T05:06:42.114Z,40.12
2023-03-18T05:07:40.562Z,40.28
2023-03-18T05:08:40.511Z,41.57
2023-03-18T05:09:40.516Z,42.38
2023-03-18T05:10:40.528Z,42.86
2023-03-18T05:11:40.502Z,41.57
2023-03-18T05:12:40.526Z,41.25
2023-03-18T05:13:40.490Z,43.18
2023-03-18T05:14:40.479Z,47.86
2023-03-18T05:15:40.464Z,43.83
2023-03-18T05:16:40.531Z,42.54
2023-03-18T05:17:40.480Z,42.22
2023-03-18T05:18:40.445Z,42.54
2023-03-18T05:19:40.437Z,42.54
2023-03-18T05:20:40.440Z,42.06
2023-03-18T05:21:40.427Z,42.06
2023-03-18T05:22:40.433Z,45.44
2023-03-18T05:23:40.405Z,48.34
2023-03-18T05:24:40.405Z,43.18
2023-03-18T05:25:40.408Z,44.63
2023-03-18T05:26:40.385Z,47.05
2023-03-18T05:27:40.410Z,41.89
2023-03-18T05:28:40.369Z,40.44
2023-03-18T05:29:40.389Z,41.57
2023-03-18T05:30:40.355Z,40.77
2023-03-18T05:31:40.388Z,40.44
2023-03-18T05:32:40.387Z,39.96
2023-03-18T05:33:40.330Z,39.96
2023-03-18T05:34:40.318Z,40.44
2023-03-18T05:35:40.349Z,45.44
2023-03-18T05:36:40.306Z,42.86
2023-03-18T05:37:40.333Z,40.44
2023-03-18T05:38:40.300Z,46.41
2023-03-18T05:39:40.312Z,39.96
2023-03-18T05:40:40.289Z,47.53
2023-03-18T05:41:40.272Z,39.96
2023-03-18T05:42:53.532Z,41.57
2023-03-18T05:43:42.256Z,41.09
2023-03-18T05:44:40.298Z,39.80
2023-03-18T05:45:41.213Z,40.28
2023-03-18T05:46:41.229Z,41.73
2023-03-18T05:47:40.250Z,40.28
2023-03-18T05:48:40.213Z,39.16
2023-03-18T05:49:40.201Z,40.12
2023-03-18T05:50:40.239Z,40.77
2023-03-18T05:51:40.194Z,39.96
2023-03-18T05:52:40.206Z,40.28
2023-03-18T05:53:40.166Z,40.93
2023-03-18T05:54:40.163Z,46.41
2023-03-18T05:55:40.158Z,40.44
2023-03-18T05:56:40.903Z,43.67
2023-03-18T05:57:40.161Z,43.02
2023-03-18T05:58:40.128Z,42.38
2023-03-18T05:59:40.196Z,42.22
2023-03-18T06:00:40.117Z,43.02
2023-03-18T06:01:40.110Z,44.31
2023-03-18T06:02:40.191Z,42.38
2023-03-18T06:03:40.180Z,41.41
2023-03-18T06:04:40.090Z,41.25
2023-03-18T06:05:40.132Z,43.99
2023-03-18T06:06:40.077Z,43.34
2023-03-18T06:07:40.091Z,41.73
2023-03-18T06:08:40.068Z,39.32
2023-03-18T06:09:40.053Z,39.80
2023-03-18T06:10:40.044Z,43.51
2023-03-18T06:11:40.046Z,40.93
2023-03-18T06:12:40.145Z,45.12
2023-03-18T06:13:40.142Z,40.12
2023-03-18T06:14:40.020Z,42.22
2023-03-18T06:15:40.043Z,41.89
2023-03-18T06:16:40.067Z,40.93
2023-03-18T06:17:40.027Z,41.89
2023-03-18T06:18:39.981Z,40.28
2023-03-18T06:19:39.995Z,41.41
2023-03-18T06:20:39.992Z,40.12
2023-03-18T06:21:40.018Z,40.77
2023-03-18T06:22:40.163Z,40.93
2023-03-18T06:23:39.960Z,41.41
2023-03-18T06:24:40.909Z,41.89
2023-03-18T06:25:40.031Z,41.89
2023-03-18T06:26:39.926Z,40.12
2023-03-18T06:27:39.992Z,39.96
2023-03-18T06:28:40.055Z,41.25
2023-03-18T06:29:39.912Z,41.25
2023-03-18T06:30:39.974Z,40.77
2023-03-18T06:31:39.897Z,47.70
2023-03-18T06:32:40.661Z,43.83
2023-03-18T06:33:39.914Z,42.54
2023-03-18T06:34:39.872Z,44.47
2023-03-18T06:35:39.906Z,43.18
2023-03-18T06:36:39.856Z,44.79
2023-03-18T06:37:39.916Z,42.54
2023-03-18T06:38:39.849Z,40.93
2023-03-18T06:39:41.283Z,42.54
2023-03-18T06:40:40.835Z,43.02
2023-03-18T06:41:39.857Z,40.12
2023-03-18T06:42:39.824Z,49.95
2023-03-18T06:43:39.832Z,45.28
2023-03-18T06:44:39.817Z,41.09
2023-03-18T06:45:39.807Z,42.54
2023-03-18T06:46:41.432Z,41.89
2023-03-18T06:47:39.863Z,42.86
2023-03-18T06:48:39.788Z,41.73
2023-03-18T06:49:39.775Z,46.08
2023-03-18T06:50:39.787Z,41.57
2023-03-18T06:51:39.808Z,45.12
2023-03-18T06:52:39.744Z,43.18
2023-03-18T06:53:39.766Z,42.86
2023-03-18T06:54:39.716Z,43.34
2023-03-18T06:55:39.710Z,48.18
2023-03-18T06:56:39.713Z,44.47
2023-03-18T06:57:39.706Z,44.15
2023-03-18T06:58:39.756Z,44.96
2023-03-18T06:59:39.695Z,43.34
2023-03-18T07:00:39.774Z,41.25
2023-03-18T07:01:40.509Z,40.93
2023-03-18T07:02:39.930Z,44.31
2023-03-18T07:03:40.712Z,44.63
2023-03-18T07:04:41.451Z,42.06
2023-03-18T07:05:39.643Z,43.02
2023-03-18T07:06:39.641Z,43.34
2023-03-18T07:07:39.647Z,39.48
2023-03-18T07:08:39.734Z,41.09
2023-03-18T07:09:39.642Z,47.37
2023-03-18T07:10:39.603Z,43.99
2023-03-18T07:11:39.715Z,44.63
2023-03-18T07:12:39.587Z,43.18
2023-03-18T07:13:39.623Z,44.15
2023-03-18T07:14:39.568Z,40.28
2023-03-18T07:15:40.526Z,44.31
2023-03-18T07:16:39.551Z,43.67
2023-03-18T07:17:39.562Z,47.21
2023-03-18T07:18:40.226Z,41.41
2023-03-18T07:19:39.540Z,43.02
2023-03-18T07:20:39.522Z,42.54
2023-03-18T07:21:39.518Z,42.86
2023-03-18T07:22:39.506Z,43.99
2023-03-18T07:23:39.538Z,44.79
2023-03-18T07:24:39.535Z,45.12
2023-03-18T07:25:39.499Z,43.99
2023-03-18T07:26:39.481Z,41.89
2023-03-18T07:27:39.470Z,47.53
2023-03-18T07:28:39.496Z,42.54
2023-03-18T07:29:39.454Z,42.06
2023-03-18T07:30:40.182Z,41.73
2023-03-18T07:31:39.499Z,45.60
2023-03-18T07:32:39.470Z,44.63
2023-03-18T07:33:39.460Z,40.93
2023-03-18T07:34:39.445Z,40.44
2023-03-18T07:35:40.651Z,50.27
2023-03-18T07:36:39.402Z,41.41
2023-03-18T07:37:39.396Z,42.38
2023-03-18T07:38:39.414Z,39.48
2023-03-18T07:39:39.378Z,40.77
2023-03-18T07:40:39.374Z,44.31
2023-03-18T07:41:39.390Z,40.44
2023-03-18T07:42:39.384Z,41.09
2023-03-18T07:43:39.403Z,46.73
2023-03-18T07:44:39.342Z,41.09
2023-03-18T07:45:39.449Z,42.22
2023-03-18T07:46:40.044Z,41.09
2023-03-18T07:47:39.343Z,47.21
2023-03-18T07:48:39.380Z,41.73
2023-03-18T07:49:39.345Z,40.77
2023-03-18T07:50:39.291Z,41.25
2023-03-18T07:51:39.295Z,47.05
2023-03-18T07:52:39.302Z,47.53
2023-03-18T07:53:39.302Z,47.86
2023-03-18T07:54:39.262Z,42.22
2023-03-18T07:55:39.260Z,45.76
2023-03-18T07:56:39.244Z,46.08
2023-03-18T07:57:39.269Z,47.86
2023-03-18T07:58:39.271Z,48.66
2023-03-18T07:59:39.238Z,48.34
2023-03-18T08:00:39.238Z,44.31
2023-03-18T08:01:39.206Z,42.54
2023-03-18T08:02:39.220Z,44.47
2023-03-18T08:03:39.264Z,42.70
2023-03-18T08:04:39.197Z,45.76
2023-03-18T08:05:39.182Z,44.96
2023-03-18T08:06:39.174Z,44.15
2023-03-18T08:07:39.171Z,46.08
2023-03-18T08:08:39.232Z,48.34
2023-03-18T08:09:39.254Z,44.31
2023-03-18T08:10:39.177Z,44.15
2023-03-18T08:11:39.137Z,45.76
2023-03-18T08:12:51.988Z,44.47
2023-03-18T08:13:41.163Z,47.70
2023-03-18T08:14:39.160Z,44.15
2023-03-18T08:15:39.119Z,45.12
2023-03-18T08:16:40.196Z,43.99
2023-03-18T08:17:39.095Z,45.60
2023-03-18T08:18:39.105Z,44.96
2023-03-18T08:19:39.075Z,46.08
2023-03-18T08:20:39.074Z,45.12
2023-03-18T08:21:39.126Z,46.41
2023-03-18T08:22:39.059Z,44.47
2023-03-18T08:23:39.066Z,48.50
2023-03-18T08:24:39.035Z,47.05
2023-03-18T08:25:39.032Z,47.86
2023-03-18T08:26:39.021Z,45.60
2023-03-18T08:27:39.017Z,44.47
2023-03-18T08:28:39.033Z,44.15
2023-03-18T08:29:38.993Z,46.41
2023-03-18T08:30:39.006Z,43.18
2023-03-18T08:31:39.118Z,45.76
2023-03-18T08:32:39.020Z,43.51
2023-03-18T08:33:38.995Z,44.15
2023-03-18T08:34:38.967Z,43.51
2023-03-18T08:35:39.027Z,45.92
2023-03-18T08:36:38.943Z,48.02
2023-03-18T08:37:38.948Z,45.76
2023-03-18T08:38:38.961Z,46.25
2023-03-18T08:39:38.920Z,47.21
2023-03-18T08:40:38.908Z,45.12
2023-03-18T08:41:38.943Z,44.63
2023-03-18T08:42:38.895Z,47.37
2023-03-18T08:43:39.252Z,45.60
2023-03-18T08:44:39.877Z,46.08
2023-03-18T08:45:38.922Z,47.05
2023-03-18T08:46:38.882Z,49.31
2023-03-18T08:47:38.859Z,44.79
2023-03-18T08:48:38.877Z,44.15
2023-03-18T08:49:38.840Z,47.05
2023-03-18T08:50:38.837Z,46.08
2023-03-18T08:51:38.894Z,47.05
2023-03-18T08:52:38.821Z,52.05
2023-03-18T08:53:38.869Z,48.18
2023-03-18T08:54:38.846Z,48.34
2023-03-18T08:55:38.809Z,48.98
2023-03-18T08:56:38.813Z,45.60
2023-03-18T08:57:38.838Z,48.82
2023-03-18T08:58:38.803Z,47.37
2023-03-18T08:59:38.825Z,45.60
2023-03-18T09:00:38.794Z,48.02
2023-03-18T09:01:38.801Z,48.98
2023-03-18T09:02:38.751Z,45.60
2023-03-18T09:03:38.826Z,44.15
2023-03-18T09:04:38.749Z,43.67
2023-03-18T09:05:38.806Z,48.82
2023-03-18T09:06:38.730Z,50.27
2023-03-18T09:07:38.733Z,47.05
2023-03-18T09:08:38.744Z,46.89
2023-03-18T09:09:43.904Z,46.08
2023-03-18T09:10:40.690Z,48.82
2023-03-18T09:11:38.698Z,46.73
2023-03-18T09:12:38.686Z,47.86
2023-03-18T09:13:39.254Z,46.41
2023-03-18T09:14:39.664Z,45.76
2023-03-18T09:15:38.664Z,49.79
2023-03-18T09:16:38.743Z,48.98
2023-03-18T09:17:53.440Z,48.50
2023-03-18T09:18:43.576Z,47.53
2023-03-18T09:19:38.625Z,50.92
2023-03-18T09:20:38.620Z,49.31
2023-03-18T09:21:38.611Z,46.08
2023-03-18T09:22:38.594Z,46.57
2023-03-18T09:23:38.630Z,45.92
2023-03-18T09:24:38.643Z,44.79
2023-03-18T09:25:38.573Z,46.25
2023-03-18T09:26:38.570Z,42.70
2023-03-18T09:27:39.685Z,45.28
2023-03-18T09:28:39.573Z,43.99
2023-03-18T09:29:39.605Z,46.08
2023-03-18T09:30:38.609Z,48.50
2023-03-18T09:31:38.553Z,44.63
2023-03-18T09:32:38.544Z,47.37
2023-03-18T09:33:38.538Z,43.51
2023-03-18T09:34:38.541Z,47.70
2023-03-18T09:35:38.529Z,45.76
2023-03-18T09:36:38.505Z,46.89
2023-03-18T09:37:38.577Z,47.05
2023-03-18T09:38:38.480Z,44.63
2023-03-18T09:39:38.503Z,45.60
2023-03-18T09:40:38.752Z,45.12
2023-03-18T09:41:38.453Z,43.18
2023-03-18T09:42:38.466Z,43.02
2023-03-18T09:43:38.440Z,44.47
2023-03-18T09:44:38.458Z,48.02
2023-03-18T09:45:38.428Z,44.15
2023-03-18T09:46:38.487Z,46.25
2023-03-18T09:47:38.406Z,44.47
2023-03-18T09:48:38.406Z,44.47
2023-03-18T09:49:38.449Z,47.86
2023-03-18T09:50:38.390Z,45.12
2023-03-18T09:51:38.375Z,43.34
2023-03-18T09:52:38.391Z,44.63
2023-03-18T09:53:38.361Z,46.89
2023-03-18T09:54:38.408Z,48.82
2023-03-18T09:55:38.352Z,44.15
2023-03-18T09:56:38.347Z,46.25
2023-03-18T09:57:38.337Z,46.57
2023-03-18T09:58:38.328Z,44.31
2023-03-18T09:59:38.346Z,44.47
2023-03-18T10:00:38.307Z,45.60
2023-03-18T10:01:38.324Z,43.51
2023-03-18T10:02:38.354Z,48.02
2023-03-18T10:03:38.317Z,51.56
2023-03-18T10:04:38.313Z,46.89
2023-03-18T10:05:38.358Z,42.86
2023-03-18T10:06:38.274Z,44.96
2023-03-18T10:07:38.277Z,47.37
2023-03-18T10:08:38.255Z,45.28
2023-03-18T10:09:38.272Z,43.51
2023-03-18T10:10:38.245Z,47.53
2023-03-18T10:11:38.235Z,46.57
2023-03-18T10:12:38.225Z,45.44
2023-03-18T10:13:38.210Z,46.41
2023-03-18T10:14:38.258Z,44.31
2023-03-18T10:15:38.293Z,46.25
2023-03-18T10:16:38.196Z,44.31
2023-03-18T10:17:38.194Z,44.96
2023-03-18T10:18:38.178Z,46.57
2023-03-18T10:19:38.217Z,43.18
2023-03-18T10:20:38.164Z,44.47
2023-03-18T10:21:38.160Z,49.79
2023-03-18T10:22:38.157Z,44.31
2023-03-18T10:23:38.142Z,48.34
2023-03-18T10:24:38.161Z,45.12
2023-03-18T10:25:38.130Z,45.12
2023-03-18T10:26:38.178Z,46.57
2023-03-18T10:27:38.117Z,42.38
2023-03-18T10:28:38.131Z,50.27
2023-03-18T10:29:38.118Z,49.15
2023-03-18T10:30:38.096Z,47.21
2023-03-18T10:31:38.127Z,46.41
2023-03-18T10:32:49.031Z,50.11
2023-03-18T10:33:40.066Z,48.82
2023-03-18T10:34:38.114Z,49.79
2023-03-18T10:35:38.120Z,50.43
2023-03-18T10:36:38.041Z,43.02
2023-03-18T10:37:38.050Z,44.31
2023-03-18T10:38:38.029Z,46.57
2023-03-18T10:39:38.048Z,46.57
2023-03-18T10:40:38.064Z,44.31
2023-03-18T10:41:38.040Z,42.06
2023-03-18T10:42:38.004Z,44.63
2023-03-18T10:43:37.994Z,47.37
2023-03-18T10:44:38.012Z,50.76
2023-03-18T10:45:38.000Z,48.18
2023-03-18T10:46:38.183Z,44.96
2023-03-18T10:47:38.043Z,46.08
2023-03-18T10:48:37.972Z,50.76
2023-03-18T10:49:38.013Z,44.63
2023-03-18T10:50:38.030Z,44.96
2023-03-18T10:51:37.977Z,43.51
2023-03-18T10:52:38.001Z,48.98
2023-03-18T10:53:37.952Z,48.34
2023-03-18T10:54:37.942Z,48.02
2023-03-18T10:55:37.935Z,43.83
2023-03-18T10:56:37.937Z,41.57
2023-03-18T10:57:37.977Z,45.92
2023-03-18T10:58:37.908Z,44.96
2023-03-18T10:59:37.940Z,45.60
2023-03-18T11:00:37.884Z,42.38
2023-03-18T11:01:37.942Z,50.11
2023-03-18T11:02:37.929Z,46.73
2023-03-18T11:03:37.885Z,47.21
2023-03-18T11:04:37.897Z,47.37
2023-03-18T11:05:37.849Z,52.37
2023-03-18T11:06:37.839Z,49.95
2023-03-18T11:07:38.816Z,49.31
2023-03-18T11:08:37.810Z,44.96
2023-03-18T11:09:37.838Z,45.76
2023-03-18T11:10:37.858Z,47.86
2023-03-18T11:11:37.802Z,47.53
2023-03-18T11:12:37.792Z,44.63
2023-03-18T11:13:37.803Z,47.70
2023-03-18T11:14:37.820Z,42.22
2023-03-18T11:15:37.768Z,44.96
2023-03-18T11:16:37.807Z,43.99
2023-03-18T11:17:37.766Z,51.40
2023-03-18T11:18:37.746Z,53.50
2023-03-18T11:19:37.773Z,48.18
2023-03-18T11:20:37.769Z,49.31
2023-03-18T11:21:37.836Z,49.47
2023-03-18T11:22:37.727Z,48.66
2023-03-18T11:23:37.746Z,44.63
2023-03-18T11:24:37.708Z,45.12
2023-03-18T11:25:37.724Z,51.40
2023-03-18T11:26:37.682Z,44.96
2023-03-18T11:27:37.710Z,48.02
2023-03-18T11:28:37.704Z,45.60
2023-03-18T11:29:37.690Z,48.02
2023-03-18T11:30:37.663Z,44.79
2023-03-18T11:31:37.686Z,44.31
2023-03-18T11:32:37.692Z,44.79
2023-03-18T11:33:37.722Z,48.82
2023-03-18T11:34:37.667Z,42.70
2023-03-18T11:35:37.690Z,46.08
2023-03-18T11:36:37.618Z,45.28
2023-03-18T11:37:37.657Z,47.70
2023-03-18T11:38:37.642Z,43.02
2023-03-18T11:39:37.722Z,45.60
2023-03-18T11:40:37.607Z,41.89
2023-03-18T11:41:37.573Z,40.61
2023-03-18T11:42:37.571Z,41.57
2023-03-18T11:43:37.687Z,48.82
2023-03-18T11:44:37.638Z,48.82
2023-03-18T11:45:37.620Z,51.08
2023-03-18T11:46:37.610Z,40.93
2023-03-18T11:47:37.580Z,44.31
2023-03-18T11:48:37.537Z,47.53
2023-03-18T11:49:37.549Z,45.28
2023-03-18T11:50:37.553Z,45.44
2023-03-18T11:51:37.559Z,43.51
2023-03-18T11:52:37.524Z,43.34
2023-03-18T11:53:37.507Z,47.21
2023-03-18T11:54:37.553Z,43.51
2023-03-18T11:55:37.517Z,47.21
2023-03-18T11:56:37.506Z,46.41
2023-03-18T11:57:37.482Z,48.34
2023-03-18T11:58:37.453Z,44.79
2023-03-18T11:59:37.471Z,46.41
2023-03-18T12:00:37.497Z,45.12
2023-03-18T12:01:37.510Z,44.96
2023-03-18T12:02:37.456Z,48.82
2023-03-18T12:03:37.419Z,42.70
2023-03-18T12:04:37.472Z,52.69
2023-03-18T12:05:37.443Z,43.99
2023-03-18T12:06:37.518Z,45.60
2023-03-18T12:07:38.342Z,46.25
2023-03-18T12:08:38.359Z,42.38
2023-03-18T12:09:37.381Z,44.79
2023-03-18T12:10:37.431Z,45.92
2023-03-18T12:11:37.384Z,50.43
2023-03-18T12:12:37.337Z,46.08
2023-03-18T12:13:38.403Z,47.86
2023-03-18T12:14:37.329Z,43.34
2023-03-18T12:15:37.352Z,45.60
2023-03-18T12:16:37.393Z,49.79
2023-03-18T12:17:37.339Z,44.63
2023-03-18T12:18:37.316Z,47.05
2023-03-18T12:19:37.329Z,49.79
2023-03-18T12:20:37.347Z,45.76
2023-03-18T12:21:37.274Z,43.67
2023-03-18T12:22:37.283Z,47.21
2023-03-18T12:23:37.337Z,47.05
2023-03-18T12:24:37.304Z,46.57
2023-03-18T12:25:37.279Z,42.54
2023-03-18T12:26:37.327Z,43.99
2023-03-18T12:27:37.240Z,43.83
2023-03-18T12:28:37.214Z,46.25
2023-03-18T12:29:37.211Z,49.31
2023-03-18T12:30:37.249Z,45.28
2023-03-18T12:31:37.273Z,41.89
2023-03-18T12:32:37.279Z,46.73
2023-03-18T12:33:37.254Z,43.02
2023-03-18T12:34:37.168Z,43.67
2023-03-18T12:35:37.453Z,44.63
2023-03-18T12:36:37.184Z,52.69
2023-03-18T12:37:37.170Z,49.63
2023-03-18T12:38:37.154Z,46.25
2023-03-18T12:39:37.155Z,46.41
2023-03-18T12:40:37.170Z,46.73
2023-03-18T12:41:37.444Z,49.79
2023-03-18T12:42:38.112Z,43.99
2023-03-18T12:43:37.120Z,46.08
2023-03-18T12:44:37.278Z,43.83
2023-03-18T12:45:37.201Z,44.31
2023-03-18T12:46:37.121Z,45.76
2023-03-18T12:47:37.410Z,48.98
2023-03-18T12:48:44.078Z,42.22
2023-03-18T12:49:39.534Z,44.31
2023-03-18T12:50:37.120Z,45.92
2023-03-18T12:51:37.062Z,43.18
2023-03-18T12:52:37.062Z,46.41